Time;durP1;ratioP1;P1;durP2;ratioP2;P2;SDS_P1;SDS_P2;PMS_P1;PMS_P2;Temp;Humidity;BMP_temperature;BMP_pressure;BME280_temperature;BME280_humidity;BME280_pressure;Samples;Min_cycle;Max_cycle;Signal;HPM_P1;HPM_P2
2022/07/26 00:00:56;;;;;;;2.10;1.52;;;;;;;25.76;42.37;100321.69;4133003;28;20080;-68
2022/07/26 00:02:59;;;;;;;3.55;1.80;;;;;;;25.76;43.09;100321.69;4132221;28;20048;-68
2022/07/26 00:05:02;;;;;;;5.90;1.40;;;;;;;25.72;43.40;100322.78;4132968;28;20089;-68
2022/07/26 00:07:08;;;;;;;3.33;1.73;;;;;;;25.70;44.23;100323.78;4132882;28;20042;-68
2022/07/26 00:09:12;;;;;;;4.38;1.40;;;;;;;25.64;44.41;100319.66;4132923;28;20130;-68
2022/07/26 00:11:15;;;;;;;;;;;;;;;25.46;45.07;100323.25;4133280;28;20515;-68
2022/07/26 00:13:20;;;;;;;6.43;1.63;;;;;;;25.51;45.16;100321.22;4130839;28;19928;-68
2022/07/26 00:15:23;;;;;;;3.28;1.20;;;;;;;25.53;45.51;100317.53;4132809;28;20564;-68
2022/07/26 00:17:26;;;;;;;5.70;1.52;;;;;;;25.55;44.73;100321.00;4131516;28;20144;-68
2022/07/26 00:19:28;;;;;;;2.13;1.25;;;;;;;25.51;44.19;100324.75;4131598;28;20045;-68
2022/07/26 00:21:31;;;;;;;4.25;1.60;;;;;;;25.50;43.88;100330.16;4131430;28;20524;-68
2022/07/26 00:23:34;;;;;;;4.53;1.40;;;;;;;25.50;44.25;100338.16;4132044;28;20068;-68
2022/07/26 00:25:39;;;;;;;2.63;1.30;;;;;;;25.48;44.54;100335.56;4132692;28;20412;-68
2022/07/26 00:27:42;;;;;;;2.92;1.35;;;;;;;25.40;44.25;100335.91;4131343;28;20048;-69
2022/07/26 00:29:46;;;;;;;7.40;1.80;;;;;;;25.37;44.69;100335.22;4132581;28;20070;-68
2022/07/26 00:31:49;;;;;;;1.70;1.20;;;;;;;25.33;45.15;100342.47;4130604;28;20047;-68
2022/07/26 00:33:53;;;;;;;3.00;1.13;;;;;;;25.32;45.09;100346.09;4131224;28;20133;-68
2022/07/26 00:35:56;;;;;;;3.72;1.42;;;;;;;25.30;45.08;100347.94;4131339;28;20069;-68
2022/07/26 00:37:59;;;;;;;2.65;1.27;;;;;;;25.26;45.36;100336.59;4132487;28;20050;-68
2022/07/26 00:40:04;;;;;;;2.95;1.40;;;;;;;25.22;45.31;100342.13;4132452;28;20599;-68
2022/07/26 00:42:12;;;;;;;3.20;1.48;;;;;;;25.18;45.48;100343.22;4132147;28;20039;-68
2022/07/26 00:44:15;;;;;;;4.20;1.52;;;;;;;25.11;45.54;100339.97;4132353;28;20046;-68
2022/07/26 00:46:43;;;;;;;7.55;1.50;;;;;;;25.04;45.65;100352.72;4132112;28;20054;-68
2022/07/26 00:48:46;;;;;;;2.85;1.25;;;;;;;24.95;45.66;100353.16;4132238;28;20076;-68
2022/07/26 00:50:49;;;;;;;2.80;1.60;;;;;;;24.93;45.98;100347.06;4131091;28;20050;-68
2022/07/26 00:52:53;;;;;;;5.10;1.30;;;;;;;24.92;45.83;100351.50;4131408;28;20038;-69
2022/07/26 00:54:56;;;;;;;3.63;1.65;;;;;;;24.89;45.86;100348.97;4132234;28;20053;-68
2022/07/26 00:56:59;;;;;;;3.60;1.70;;;;;;;24.85;45.39;100347.44;4132204;28;20038;-68
2022/07/26 00:59:03;;;;;;;1.63;1.42;;;;;;;24.84;45.29;100356.31;4130968;28;20420;-68
2022/07/26 01:01:06;;;;;;;3.17;1.65;;;;;;;24.84;45.47;100366.13;4132127;28;20137;-68
2022/07/26 01:03:10;;;;;;;3.15;1.27;;;;;;;24.87;45.94;100371.28;4131256;28;20038;-68
2022/07/26 01:05:13;;;;;;;3.20;1.55;;;;;;;24.85;45.89;100373.13;4130763;28;20038;-68
2022/07/26 01:07:15;;;;;;;4.93;1.75;;;;;;;24.80;46.04;100372.50;4132484;28;20449;-68
2022/07/26 01:09:19;;;;;;;3.58;1.30;;;;;;;24.70;46.56;100364.94;4130839;28;20034;-68
2022/07/26 01:11:22;;;;;;;3.78;1.73;;;;;;;24.67;46.85;100375.72;4131884;28;20042;-68
2022/07/26 01:13:25;;;;;;;2.90;1.27;;;;;;;24.60;46.98;100368.94;4131090;28;20038;-68
2022/07/26 01:15:29;;;;;;;5.93;1.67;;;;;;;24.60;46.85;100379.59;4131973;28;20129;-68
2022/07/26 01:17:32;;;;;;;;;;;;;;;24.38;47.49;100379.66;4132362;28;20411;-68
2022/07/26 01:19:38;;;;;;;2.88;1.35;;;;;;;24.37;47.59;100384.13;4132288;28;20265;-68
2022/07/26 01:21:42;;;;;;;2.47;1.40;;;;;;;24.37;47.82;100381.47;4131510;28;20070;-68
2022/07/26 01:23:45;;;;;;;2.33;1.60;;;;;;;24.33;48.27;100393.16;4114375;28;20142;-68
2022/07/26 01:25:48;;;;;;;4.28;1.65;;;;;;;24.29;47.94;100385.41;4131811;28;20072;-68
2022/07/26 01:27:53;;;;;;;3.03;1.52;;;;;;;24.28;47.63;100391.63;4131927;28;20042;-68
2022/07/26 01:29:56;;;;;;;3.55;1.60;;;;;;;24.28;47.05;100388.97;4131778;28;20046;-68
2022/07/26 01:32:02;;;;;;;2.72;1.50;;;;;;;24.26;46.91;100390.84;4130922;28;20049;-68
2022/07/26 01:34:05;;;;;;;4.55;1.80;;;;;;;24.23;47.04;100392.69;4131580;28;20046;-68
2022/07/26 01:36:11;;;;;;;5.78;1.80;;;;;;;24.21;46.96;100394.56;4131717;28;20048;-69
2022/07/26 01:38:15;;;;;;;3.83;1.50;;;;;;;24.20;47.49;100386.66;4130449;28;20054;-68
2022/07/26 01:40:18;;;;;;;;;;;;;;;24.04;47.94;100389.97;4132200;28;20065;-68
2022/07/26 01:42:21;;;;;;;4.78;1.77;;;;;;;24.05;47.31;100393.50;4129751;28;19922;-69
2022/07/26 01:44:24;;;;;;;6.70;1.85;;;;;;;24.13;47.70;100391.38;4131556;28;20121;-68
2022/07/26 01:46:27;;;;;;;3.38;1.95;;;;;;;24.16;46.71;100395.69;4131607;28;20460;-68
2022/07/26 01:48:30;;;;;;;6.45;1.70;;;;;;;24.15;45.96;100393.94;4130235;28;20053;-68
2022/07/26 01:50:33;;;;;;;2.65;1.25;;;;;;;24.09;46.11;100394.22;4131622;28;20540;-68
2022/07/26 01:52:38;;;;;;;2.30;1.48;;;;;;;24.04;45.94;100402.41;4130712;28;20038;-68
2022/07/26 01:54:42;;;;;;;3.72;1.60;;;;;;;24.08;45.81;100405.78;4131440;28;20062;-68
2022/07/26 01:56:45;;;;;;;;;;;;;;;23.86;45.73;100396.09;4131946;28;20527;-68
2022/07/26 01:58:48;;;;;;;3.03;1.60;;;;;;;23.91;46.02;100396.75;4132556;28;20269;-68
2022/07/26 02:00:51;;;;;;;2.05;1.50;;;;;;;23.95;45.89;100398.34;4133752;28;20062;-68
2022/07/26 02:02:54;;;;;;;3.50;1.50;;;;;;;23.95;45.70;100398.34;4133992;28;20523;-68
2022/07/26 02:05:00;;;;;;;2.42;1.40;;;;;;;23.98;45.81;100398.22;4134796;28;20050;-68
2022/07/26 02:07:03;;;;;;;1.85;1.38;;;;;;;24.08;45.61;100397.81;4133573;28;20050;-68
2022/07/26 02:09:07;;;;;;;3.28;1.83;;;;;;;24.09;45.74;100394.22;4134821;28;20062;-68
2022/07/26 02:11:16;;;;;;;5.60;1.80;;;;;;;24.17;45.59;100397.44;4133498;28;20050;-68
2022/07/26 02:13:19;;;;;;;5.75;1.80;;;;;;;24.17;45.32;100402.72;4116450;28;20097;-68
2022/07/26 02:15:22;;;;;;;5.38;1.90;;;;;;;24.08;45.17;100397.81;4133342;28;20105;-68
2022/07/26 02:17:25;;;;;;;2.47;1.58;;;;;;;24.02;45.33;100404.22;4134548;28;20042;-68
2022/07/26 02:19:43;;;;;;;4.18;1.60;;;;;;;23.95;45.29;100402.81;4122943;28;20523;-68
2022/07/26 02:21:46;;;;;;;2.45;1.42;;;;;;;23.88;45.49;100407.50;4132677;28;20045;-68
2022/07/26 02:23:48;;;;;;;3.72;1.48;;;;;;;23.81;45.62;100411.28;4134406;28;20404;-68
2022/07/26 02:25:53;;;;;;;2.60;1.50;;;;;;;23.79;45.78;100407.84;4134526;28;20141;-68
2022/07/26 02:27:57;;;;;;;5.75;1.80;;;;;;;23.73;45.86;100413.41;4134619;28;20038;-69
2022/07/26 02:30:00;;;;;;;;;;;;;;;23.53;46.34;100412.44;4135057;28;20328;-68
2022/07/26 02:32:04;;;;;;;6.05;1.67;;;;;;;23.61;46.08;100410.34;4133594;28;19921;-68
2022/07/26 02:34:07;;;;;;;2.95;1.60;;;;;;;23.63;46.28;100405.81;4134311;28;20488;-68
2022/07/26 02:36:11;;;;;;;7.70;2.13;;;;;;;23.65;46.13;100417.22;4134373;28;20088;-68
2022/07/26 02:38:16;;;;;;;5.30;1.77;;;;;;;23.61;46.19;100413.00;4133103;28;20046;-68
2022/07/26 02:40:19;;;;;;;3.70;1.88;;;;;;;23.60;46.00;100411.25;4134263;28;20038;-68
2022/07/26 02:42:22;;;;;;;3.90;1.80;;;;;;;23.64;46.12;100420.81;4132289;28;20476;-68
2022/07/26 02:44:27;;;;;;;3.15;1.67;;;;;;;23.61;45.79;100412.13;4134150;28;20046;-68
2022/07/26 02:46:30;;;;;;;2.70;1.30;;;;;;;23.54;46.00;100406.22;4132998;28;20038;-70
2022/07/26 02:48:33;;;;;;;3.05;1.50;;;;;;;23.49;46.04;100416.13;4132996;28;20471;-68
2022/07/26 02:50:36;;;;;;;3.63;1.60;;;;;;;23.39;46.38;100420.06;4132920;28;20042;-68
2022/07/26 02:52:39;;;;;;;2.67;1.40;;;;;;;23.37;46.25;100416.63;4133343;28;20052;-68
2022/07/26 02:54:42;;;;;;;5.15;1.92;;;;;;;23.35;46.72;100419.34;4134001;28;20042;-71
2022/07/26 02:56:45;;;;;;;2.90;1.55;;;;;;;23.33;46.44;100411.47;4132817;28;20073;-68
2022/07/26 02:58:48;;;;;;;4.90;1.58;;;;;;;23.35;46.65;100414.91;4134008;28;20137;-68
2022/07/26 03:00:52;;;;;;;4.13;1.60;;;;;;;23.39;46.23;100417.44;4134154;28;20240;-70
2022/07/26 03:02:56;;;;;;;4.82;1.65;;;;;;;23.39;46.38;100417.44;4133191;28;20114;-68
2022/07/26 03:05:01;;;;;;;3.13;2.55;;;;;;;23.40;46.50;100417.38;4133965;28;20046;-68
2022/07/26 03:07:03;;;;;;;3.15;1.70;;;;;;;23.39;46.41;100406.81;4133860;28;20053;-68
2022/07/26 03:09:06;;;;;;;5.13;1.63;;;;;;;23.47;45.92;100412.69;4133974;28;20039;-68
2022/07/26 03:11:10;;;;;;;6.82;1.70;;;;;;;23.47;46.33;100404.72;4133780;28;20135;-68
2022/07/26 03:13:14;;;;;;;;;;;;;;;23.39;46.45;100410.31;4133291;28;20053;-68
2022/07/26 03:15:17;;;;;;;3.63;1.50;;;;;;;23.41;46.45;100411.13;4133762;28;19921;-68
2022/07/26 03:17:21;;;;;;;4.65;1.75;;;;;;;23.48;46.30;100409.97;4133853;28;20038;-68
2022/07/26 03:19:24;;;;;;;;;;;;;;;23.28;46.64;100421.38;4134158;28;20134;-68
2022/07/26 03:21:27;;;;;;;2.90;1.40;;;;;;;23.21;46.54;100417.22;4133632;28;19922;-68
2022/07/26 03:23:32;;;;;;;4.93;1.60;;;;;;;23.22;46.89;100418.97;4115506;28;20461;-68
2022/07/26 03:25:35;;;;;;;3.97;2.10;;;;;;;23.26;46.59;100420.56;4133632;28;20045;-69
2022/07/26 03:27:39;;;;;;;2.83;1.58;;;;;;;23.25;46.71;100410.03;4132430;28;20049;-69
2022/07/26 03:29:42;;;;;;;2.60;1.58;;;;;;;23.25;46.85;100416.19;4132516;28;20042;-69
2022/07/26 03:31:45;;;;;;;3.83;1.98;;;;;;;23.26;46.68;100415.28;4132841;28;20049;-68
2022/07/26 03:33:49;;;;;;;3.85;1.50;;;;;;;23.22;46.51;100411.00;4133391;28;20038;-69
2022/07/26 03:35:52;;;;;;;3.65;1.83;;;;;;;23.17;46.91;100421.81;4132253;28;20038;-69
2022/07/26 03:37:56;;;;;;;4.65;1.63;;;;;;;23.19;46.86;100424.38;4133421;28;20053;-69
2022/07/26 03:39:59;;;;;;;3.20;1.83;;;;;;;23.24;46.85;100413.59;4133394;28;20132;-68
2022/07/26 03:42:02;;;;;;;6.22;1.90;;;;;;;23.25;46.91;100418.00;4132634;28;20527;-69
2022/07/26 03:44:05;;;;;;;4.43;1.90;;;;;;;23.32;46.89;100417.69;4133291;28;20058;-68
2022/07/26 03:46:09;;;;;;;3.50;1.90;;;;;;;23.30;46.77;100411.53;4133442;28;20045;-68
2022/07/26 03:48:12;;;;;;;5.45;1.73;;;;;;;23.24;47.00;100411.78;4133257;28;20043;-69
2022/07/26 03:50:16;;;;;;;4.63;2.10;;;;;;;23.25;46.59;100410.88;4133200;28;20129;-69
2022/07/26 03:52:19;;;;;;;;;;;;;;;23.08;46.90;100411.50;4132853;28;20046;-69
2022/07/26 03:54:22;;;;;;;3.47;1.58;;;;;;;23.15;47.03;100420.13;4133054;28;20039;-69
2022/07/26 03:56:33;;;;;;;3.53;1.63;;;;;;;23.22;47.20;100408.34;4131948;28;20594;-69
2022/07/26 03:58:35;;;;;;;5.63;1.70;;;;;;;23.21;47.23;100411.91;4131923;28;20141;-69
2022/07/26 04:00:39;;;;;;;3.72;1.63;;;;;;;23.22;47.52;100407.47;4132985;28;20451;-69
2022/07/26 04:02:42;;;;;;;4.07;1.98;;;;;;;23.21;47.18;100416.38;4114948;28;20548;-69
2022/07/26 04:04:45;;;;;;;4.47;2.05;;;;;;;23.14;47.17;100410.44;4132768;28;20043;-69
2022/07/26 04:06:49;;;;;;;3.78;1.38;;;;;;;23.12;47.31;100413.16;4132986;28;20039;-69
2022/07/26 04:08:52;;;;;;;;;;;;;;;22.94;47.40;100419.09;4133573;28;20186;-68
2022/07/26 04:10:55;;;;;;;5.25;1.70;;;;;;;22.99;48.06;100417.16;4132894;28;20012;-69
2022/07/26 04:12:58;;;;;;;3.70;1.60;;;;;;;23.06;48.08;100417.81;4132094;28;20464;-68
2022/07/26 04:15:01;;;;;;;3.92;1.73;;;;;;;23.07;48.26;100414.22;4132785;28;20137;-68
2022/07/26 04:17:04;;;;;;;4.18;1.67;;;;;;;23.12;48.66;100417.59;4132794;28;20035;-69
2022/07/26 04:19:07;;;;;;;3.60;1.65;;;;;;;23.08;48.66;100415.94;4133266;28;20050;-69
2022/07/26 04:21:10;;;;;;;4.90;1.73;;;;;;;23.04;49.10;100423.13;4132315;28;20400;-69
2022/07/26 04:23:14;;;;;;;4.95;1.85;;;;;;;22.98;48.01;100426.03;4131877;28;20551;-69
2022/07/26 04:25:17;;;;;;;3.75;2.00;;;;;;;22.92;47.86;100426.28;4132677;28;20056;-69
2022/07/26 04:27:20;;;;;;;3.38;1.73;;;;;;;22.89;48.45;100429.91;4132635;28;20038;-69
2022/07/26 04:29:23;;;;;;;5.32;1.88;;;;;;;22.94;48.50;100432.38;4132590;28;20048;-69
2022/07/26 04:31:26;;;;;;;2.65;1.38;;;;;;;22.93;47.85;100433.31;4132570;28;20134;-69
2022/07/26 04:33:36;;;;;;;4.68;1.73;;;;;;;22.91;48.77;100430.72;4131845;28;20523;-69
2022/07/26 04:35:39;;;;;;;6.47;1.77;;;;;;;22.89;48.07;100435.19;4131346;28;20407;-69
2022/07/26 04:37:43;;;;;;;4.85;1.70;;;;;;;22.91;47.72;100433.38;4132483;28;20034;-69
2022/07/26 04:39:48;;;;;;;;;;;;;;;22.82;48.39;100441.66;4131757;28;20038;-69
2022/07/26 04:41:56;;;;;;;3.15;1.60;;;;;;;22.89;49.25;100443.16;4131750;28;20895;-69
2022/07/26 04:43:59;;;;;;;3.45;1.60;;;;;;;22.98;49.29;100440.16;4132333;28;20077;-69
2022/07/26 04:46:02;;;;;;;2.55;1.50;;;;;;;22.96;48.27;100444.66;4131135;28;20065;-69
2022/07/26 04:48:06;;;;;;;4.13;1.63;;;;;;;23.05;48.12;100445.22;4132338;28;20045;-69
2022/07/26 04:50:10;;;;;;;4.03;1.67;;;;;;;22.92;47.89;100450.13;4132278;28;20050;-69
2022/07/26 04:52:13;;;;;;;6.70;1.83;;;;;;;22.90;47.63;100455.50;4130354;28;20046;-69
2022/07/26 04:54:19;;;;;;;4.72;1.80;;;;;;;22.73;47.75;100460.53;4130942;28;20428;-69
2022/07/26 04:56:23;;;;;;;3.25;1.60;;;;;;;22.54;48.12;100455.91;4132226;28;20061;-69
2022/07/26 04:58:26;;;;;;;4.40;1.75;;;;;;;22.53;48.26;100454.19;4132169;28;20042;-69
2022/07/26 05:00:29;;;;;;;2.90;1.63;;;;;;;22.59;48.08;100450.44;4132162;28;20456;-69
2022/07/26 05:02:32;;;;;;;5.45;2.05;;;;;;;22.58;48.17;100456.66;4131336;28;20046;-68
2022/07/26 05:04:35;;;;;;;4.47;1.75;;;;;;;22.56;48.16;100459.38;4132020;28;20034;-69
2022/07/26 05:06:38;;;;;;;3.80;1.70;;;;;;;22.72;47.94;100461.47;4132091;28;20054;-69
2022/07/26 05:08:42;;;;;;;4.10;1.83;;;;;;;22.71;47.80;100465.06;4130946;28;20122;-69
2022/07/26 05:10:45;;;;;;;4.43;1.80;;;;;;;22.63;48.35;100471.50;4132041;28;20042;-69
2022/07/26 05:12:56;;;;;;;5.68;2.15;;;;;;;22.70;47.96;100473.91;4131546;28;20039;-68
2022/07/26 05:14:59;;;;;;;6.72;2.17;;;;;;;22.67;47.93;100483.69;4131801;28;20403;-68
2022/07/26 05:17:06;;;;;;;6.13;1.92;;;;;;;22.70;48.02;100479.22;4131943;28;20053;-68
2022/07/26 05:19:12;;;;;;;14.38;2.15;;;;;;;22.63;47.96;100484.75;4130710;28;20440;-68
2022/07/26 05:21:14;;;;;;;6.90;1.65;;;;;;;22.66;48.06;100492.56;4131915;28;20069;-68
2022/07/26 05:23:19;;;;;;;5.93;1.45;;;;;;;22.76;48.06;100484.28;4129961;28;20045;-68
2022/07/26 05:25:22;;;;;;;3.20;1.75;;;;;;;22.67;47.55;100488.97;4130699;28;20497;-68
2022/07/26 05:27:25;;;;;;;6.07;1.70;;;;;;;22.53;47.50;100483.34;4130475;28;20471;-67
2022/07/26 05:29:29;;;;;;;2.88;1.50;;;;;;;22.51;47.63;100485.16;4131747;28;20042;-68
2022/07/26 05:31:32;;;;;;;6.38;1.70;;;;;;;22.30;48.04;100484.94;4131602;28;20069;-68
2022/07/26 05:33:35;;;;;;;7.47;2.55;;;;;;;22.39;48.10;100493.53;4130286;28;20500;-67
2022/07/26 05:35:38;;;;;;;7.90;1.70;;;;;;;22.46;47.75;100490.63;4131557;28;20038;-68
2022/07/26 05:37:42;;;;;;;6.85;1.48;;;;;;;22.43;47.54;100487.22;4131653;28;20049;-68
2022/07/26 05:39:45;;;;;;;3.58;1.77;;;;;;;22.29;47.96;100488.50;4130410;28;20070;-68
2022/07/26 05:41:47;;;;;;;5.13;1.60;;;;;;;22.23;47.93;100496.66;4131000;28;20524;-68
2022/07/26 05:43:51;;;;;;;6.45;1.55;;;;;;;22.11;48.11;100494.44;4131495;28;20046;-68
2022/07/26 05:45:56;;;;;;;4.72;1.98;;;;;;;22.14;48.38;100497.84;4131609;28;20583;-68
2022/07/26 05:47:59;;;;;;;3.20;1.40;;;;;;;22.25;48.34;100494.84;4131626;28;20047;-68
2022/07/26 05:50:03;;;;;;;5.22;1.60;;;;;;;22.31;48.19;100489.34;4131601;28;20137;-68
2022/07/26 05:52:06;;;;;;;6.05;1.48;;;;;;;22.42;48.13;100501.38;4129750;28;20240;-68
2022/07/26 05:54:09;;;;;;;3.08;1.50;;;;;;;22.56;47.93;100500.88;4131486;28;20042;-68
2022/07/26 05:56:12;;;;;;;3.80;1.50;;;;;;;22.60;47.60;100495.41;4131582;28;20089;-69
2022/07/26 05:58:15;;;;;;;2.45;1.27;;;;;;;22.57;47.42;100489.38;4131457;28;20050;-69
2022/07/26 06:00:19;;;;;;;3.47;1.50;;;;;;;22.52;47.80;100491.34;4130383;28;20593;-69
2022/07/26 06:02:23;;;;;;;3.95;1.60;;;;;;;22.53;47.84;100498.34;4130776;28;20038;-69
2022/07/26 06:04:26;;;;;;;;;;;;;;;22.42;47.81;100507.53;4130565;28;20038;-69
2022/07/26 06:06:29;;;;;;;3.40;1.48;;;;;;;22.56;47.68;100496.47;4131430;28;19976;-69
2022/07/26 06:08:33;;;;;;;6.15;1.67;;;;;;;22.60;47.12;100490.13;4131461;28;20069;-69
2022/07/26 06:10:36;;;;;;;5.28;1.83;;;;;;;22.59;46.61;100504.31;4131411;28;20077;-69
2022/07/26 06:12:40;;;;;;;4.85;1.60;;;;;;;22.66;47.01;100507.59;4130681;28;20049;-69
2022/07/26 06:14:43;;;;;;;3.85;1.50;;;;;;;22.65;47.06;100501.44;4131217;28;20046;-69
2022/07/26 06:16:46;;;;;;;2.50;1.17;;;;;;;22.57;47.20;100503.47;4131401;28;20125;-69
2022/07/26 06:18:50;;;;;;;3.35;1.02;;;;;;;22.47;47.21;100513.56;4131464;28;20500;-69
2022/07/26 06:20:53;;;;;;;2.58;1.45;;;;;;;22.44;47.22;100504.81;4131407;28;20042;-69
2022/07/26 06:22:57;;;;;;;5.07;1.08;;;;;;;22.42;47.11;100509.31;4130537;28;20469;-69
2022/07/26 06:25:00;;;;;;;5.50;1.67;;;;;;;22.36;47.01;100513.03;4131346;28;20034;-69
2022/07/26 06:27:03;;;;;;;3.58;1.38;;;;;;;22.32;47.15;100511.41;4130028;28;20137;-69
2022/07/26 06:29:07;;;;;;;5.35;2.20;;;;;;;22.40;47.00;100512.03;4130318;28;20053;-69
2022/07/26 06:31:10;;;;;;;3.30;1.48;;;;;;;22.49;47.22;100516.16;4131345;28;20138;-67
2022/07/26 06:33:13;;;;;;;3.83;1.20;;;;;;;22.52;47.08;100505.44;4130459;28;20129;-68
2022/07/26 06:35:18;;;;;;;5.80;1.60;;;;;;;22.56;47.00;100522.97;4131161;28;20043;-68
2022/07/26 06:37:21;;;;;;;3.70;1.30;;;;;;;22.68;46.59;100516.38;4129983;28;20038;-69
2022/07/26 06:39:24;;;;;;;4.80;1.40;;;;;;;22.73;46.26;100525.00;4130110;28;20141;-68
2022/07/26 06:41:27;;;;;;;3.35;1.40;;;;;;;22.77;46.40;100525.78;4129988;28;20126;-68
2022/07/26 06:43:30;;;;;;;5.45;1.50;;;;;;;22.79;46.50;100526.56;4130564;28;20469;-69
2022/07/26 06:45:33;;;;;;;5.20;1.55;;;;;;;22.84;46.60;100524.66;4133272;28;20046;-69
2022/07/26 06:47:36;;;;;;;3.22;1.05;;;;;;;22.96;46.34;100518.03;4134229;28;20034;-69
2022/07/26 06:49:39;;;;;;;8.50;1.40;;;;;;;22.89;45.96;100522.69;4149149;28;20053;-69
2022/07/26 06:51:44;;;;;;;3.70;1.55;;;;;;;22.83;45.99;100526.41;4133469;28;20053;-69
2022/07/26 06:53:46;;;;;;;3.35;1.30;;;;;;;22.86;46.12;100528.09;4133945;28;20046;-69
2022/07/26 06:55:49;;;;;;;3.72;1.45;;;;;;;22.88;46.13;100526.28;4133956;28;20047;-69
2022/07/26 06:57:52;;;;;;;5.53;1.38;;;;;;;22.93;46.13;100526.09;4134109;28;20050;-69
2022/07/26 06:59:55;;;;;;;6.45;1.48;;;;;;;22.96;45.63;100518.88;4133992;28;20038;-69
2022/07/26 07:01:58;;;;;;;4.07;1.23;;;;;;;22.87;45.69;100526.28;4133253;28;20046;-69
2022/07/26 07:04:02;;;;;;;2.90;1.20;;;;;;;22.87;45.36;100519.22;4133909;28;20039;-70
2022/07/26 07:06:05;;;;;;;4.18;1.00;;;;;;;22.91;44.96;100520.84;4133945;28;20123;-69
2022/07/26 07:08:10;;;;;;;2.17;1.00;;;;;;;22.86;44.78;100520.13;4132686;28;20427;-69
2022/07/26 07:10:13;;;;;;;4.22;1.08;;;;;;;22.79;44.47;100522.16;4133764;28;20043;-69
2022/07/26 07:12:16;;;;;;;2.08;1.30;;;;;;;22.83;44.70;100512.31;4133016;28;20125;-69
2022/07/26 07:14:19;;;;;;;2.15;1.30;;;;;;;22.79;44.27;100516.88;4133792;28;20719;-69
2022/07/26 07:16:22;;;;;;;2.13;1.23;;;;;;;22.81;44.41;100524.75;4133659;28;20516;-69
2022/07/26 07:18:25;;;;;;;3.83;1.08;;;;;;;22.88;44.25;100522.72;4133705;28;20054;-69
2022/07/26 07:20:28;;;;;;;3.30;1.10;;;;;;;22.82;44.22;100521.16;4133763;28;20034;-69
2022/07/26 07:22:31;;;;;;;2.80;0.90;;;;;;;22.83;44.17;100522.91;4132924;28;20043;-69
2022/07/26 07:24:36;;;;;;;7.22;1.17;;;;;;;22.69;44.29;100518.06;4133598;28;20046;-69
2022/07/26 07:26:39;;;;;;;1.45;0.90;;;;;;;22.60;44.33;100534.31;4133595;28;20038;-69
2022/07/26 07:28:42;;;;;;;6.47;1.52;;;;;;;22.66;44.41;100527.03;4132319;28;20048;-68
2022/07/26 07:30:46;;;;;;;4.32;1.40;;;;;;;22.80;44.45;100528.31;4133626;28;20129;-69
2022/07/26 07:32:49;;;;;;;;;;;;;;;22.83;44.54;100522.91;4133143;28;20516;-69
2022/07/26 07:34:52;;;;;;;2.88;1.20;;;;;;;23.08;44.46;100528.19;4132309;28;19977;-69
2022/07/26 07:36:55;;;;;;;2.65;1.05;;;;;;;23.28;43.97;100522.16;4133374;28;20512;-69
2022/07/26 07:38:59;;;;;;;3.93;1.50;;;;;;;23.46;43.51;100533.00;4133440;28;20042;-69
2022/07/26 07:41:09;;;;;;;3.22;0.95;;;;;;;23.32;43.73;100521.13;4133459;28;21023;-69
2022/07/26 07:43:12;;;;;;;4.95;1.20;;;;;;;23.28;43.55;100530.13;4131375;28;20046;-70
2022/07/26 07:45:15;;;;;;;2.78;0.90;;;;;;;23.26;43.67;100531.97;4133299;28;20500;-69
2022/07/26 07:47:18;;;;;;;3.95;1.27;;;;;;;23.26;43.71;100525.78;4132111;28;20097;-69
2022/07/26 07:49:21;;;;;;;4.32;1.40;;;;;;;23.38;43.32;100520.03;4133299;28;20529;-69
2022/07/26 07:51:25;;;;;;;1.55;0.95;;;;;;;23.37;43.42;100520.97;4133231;28;20046;-69
2022/07/26 07:53:28;;;;;;;3.00;1.03;;;;;;;23.44;43.64;100525.09;4132410;28;20125;-69
2022/07/26 07:55:32;;;;;;;;;;;;;;;23.32;43.51;100520.28;4133413;28;20125;-69
2022/07/26 07:57:47;;;;;;;3.05;1.00;;;;;;;23.40;43.72;100519.97;4131395;28;20418;-69
2022/07/26 07:59:50;;;;;;;;;;;;;;;23.46;43.68;100519.75;4132333;28;20056;-69
2022/07/26 08:01:53;;;;;;;1.60;0.90;;;;;;;23.59;43.22;100528.94;4132420;28;19921;-70
2022/07/26 08:03:56;;;;;;;2.85;1.20;;;;;;;23.64;43.25;100523.47;4132962;28;20046;-69
2022/07/26 08:05:58;;;;;;;2.63;0.90;;;;;;;23.74;43.24;100519.50;4133087;28;20043;-69
2022/07/26 08:08:02;;;;;;;2.85;1.30;;;;;;;23.92;42.75;100522.38;4133054;28;20046;-69
2022/07/26 08:10:06;;;;;;;2.03;0.98;;;;;;;23.96;42.78;100516.91;4132951;28;20534;-69
2022/07/26 08:12:09;;;;;;;3.22;1.10;;;;;;;23.87;42.71;100515.50;4130960;28;20053;-69
2022/07/26 08:14:14;;;;;;;2.45;0.90;;;;;;;23.83;43.06;100521.81;4132775;28;20043;-69
2022/07/26 08:16:19;;;;;;;2.42;1.13;;;;;;;23.85;42.92;100525.25;4115546;28;20075;-69
2022/07/26 08:18:23;;;;;;;3.13;0.80;;;;;;;23.95;42.64;100527.59;4131668;28;20049;-70
2022/07/26 08:20:26;;;;;;;3.58;1.00;;;;;;;23.94;42.52;100524.06;4132780;28;20050;-69
2022/07/26 08:22:29;;;;;;;1.98;0.90;;;;;;;23.86;42.32;100536.81;4132041;28;20043;-69
2022/07/26 08:24:32;;;;;;;2.28;0.90;;;;;;;23.84;42.44;100526.19;4131368;28;20524;-69
2022/07/26 08:26:35;;;;;;;2.20;0.90;;;;;;;24.15;42.54;100522.34;4131578;28;20042;-69
2022/07/26 08:28:38;;;;;;;2.05;1.20;;;;;;;24.34;41.97;100526.84;4132646;28;20038;-69
2022/07/26 08:30:51;;;;;;;2.75;1.02;;;;;;;24.42;42.05;100518.59;4132724;28;20051;-69
2022/07/26 08:32:54;;;;;;;2.67;1.17;;;;;;;24.18;42.14;100537.25;4131775;28;20061;-69
2022/07/26 08:34:57;;;;;;;4.30;1.10;;;;;;;24.26;41.86;100529.00;4132551;28;20133;-69
2022/07/26 08:37:20;;;;;;;2.15;1.00;;;;;;;23.99;42.34;100530.06;4132471;28;20039;-69
2022/07/26 08:39:23;;;;;;;3.05;1.17;;;;;;;23.87;43.04;100523.47;4131264;28;20034;-69
2022/07/26 08:41:26;;;;;;;4.22;1.23;;;;;;;23.91;43.21;100526.00;4132891;28;20048;-69
2022/07/26 08:43:29;;;;;;;4.13;1.00;;;;;;;23.94;42.81;100537.34;4131646;28;20042;-69
2022/07/26 08:45:34;;;;;;;3.80;1.02;;;;;;;24.08;42.64;100536.78;4132384;28;20042;-69
2022/07/26 08:47:40;;;;;;;1.88;1.00;;;;;;;24.01;43.22;100537.97;4132373;28;20035;-69
2022/07/26 08:50:03;;;;;;;4.22;1.30;;;;;;;23.99;42.91;100543.34;4132367;28;20101;-69
2022/07/26 08:52:06;;;;;;;6.85;0.80;;;;;;;23.92;43.27;100544.50;4131542;28;20050;-69
2022/07/26 08:54:12;;;;;;;3.10;0.93;;;;;;;23.95;43.05;100541.72;4132199;28;20039;-69
2022/07/26 08:56:14;;;;;;;3.33;1.10;;;;;;;23.86;43.05;100542.13;4132156;28;20048;-69
2022/07/26 08:58:17;;;;;;;2.53;0.80;;;;;;;23.93;43.10;100546.22;4131076;28;20046;-69
2022/07/26 09:00:23;;;;;;;1.73;0.65;;;;;;;24.10;42.61;100545.56;4132199;28;20045;-69
2022/07/26 09:02:40;;;;;;;1.20;0.60;;;;;;;24.28;42.43;100533.28;4131507;28;20429;-69
2022/07/26 09:04:45;;;;;;;1.90;0.90;;;;;;;24.52;42.07;100530.56;4131730;28;20042;-69
2022/07/26 09:06:56;;;;;;;5.00;0.90;;;;;;;24.72;41.63;100533.25;4130798;28;20080;-69
2022/07/26 09:09:11;;;;;;;4.93;1.20;;;;;;;24.87;41.96;100544.13;4130613;28;20411;-69
2022/07/26 09:11:31;;;;;;;;;;;;;;;24.74;41.62;100539.34;4131295;28;20070;-69
2022/07/26 09:13:50;;;;;;;6.68;1.27;;;;;;;24.79;42.47;100532.97;4131351;28;19997;-69
2022/07/26 09:16:08;;;;;;;5.60;1.05;;;;;;;24.73;42.02;100529.63;4131922;28;20042;-69
2022/07/26 09:18:27;;;;;;;3.55;0.82;;;;;;;24.60;42.19;100544.38;4130730;28;20555;-69
2022/07/26 09:20:32;;;;;;;1.85;0.93;;;;;;;24.56;42.01;100537.44;4131958;28;20042;-69
2022/07/26 09:22:35;;;;;;;2.22;0.85;;;;;;;24.53;41.85;100545.53;4131118;28;20444;-69
2022/07/26 09:24:40;;;;;;;2.77;1.03;;;;;;;24.45;42.24;100537.06;4131901;28;20118;-69
2022/07/26 09:26:55;;;;;;;4.40;1.77;;;;;;;24.41;42.51;100541.63;4131840;28;20372;-69
2022/07/26 09:29:06;;;;;;;2.47;0.90;;;;;;;24.44;42.43;100544.13;4131873;28;20093;-69
2022/07/26 09:31:09;;;;;;;4.15;0.98;;;;;;;24.62;42.33;100542.53;4130572;28;20150;-69
2022/07/26 09:33:12;;;;;;;2.05;0.82;;;;;;;24.91;41.67;100535.06;4130946;28;20531;-69
2022/07/26 09:35:17;;;;;;;4.38;1.20;;;;;;;25.07;40.96;100543.22;4131795;28;20042;-70
2022/07/26 09:37:42;;;;;;;2.28;1.17;;;;;;;25.02;40.72;100538.13;4130436;28;20046;-69
2022/07/26 09:39:57;;;;;;;4.38;1.13;;;;;;;24.85;40.94;100538.00;4131777;28;20150;-69
2022/07/26 09:42:07;;;;;;;1.88;0.93;;;;;;;24.81;41.27;100542.59;4113681;28;20082;-70